Miramar, Argentina
Current Conditions -  °F | °C
As of 6:02 PM on Thursday 20 Nov 2014 (Local Time) from SACO Reporting Station
Moderate Rain Moderate Rain  
Wind Chill: 59°   Ceiling: 3500
Heat Index: 59°   Visibility: 4mi
Dew Point: 55°   Wind: 8mph
Humidity: 88%   Direction: 230°SW
Pressure: 30"   Gusts: NA
Location:  30.9°S, 62.67°W
Report Text: SACO 202102Z 23007KT 6000 RA SCT012 BKN035 15/13 Q1016
Loading
Personal Weather Stations






























Interactive Weather Map New forecast layout! Learn more

10-Day Weather Forecast

Advertisements
Track Severe Weather on mobile